Airfield :
LOGIN :

Register | Disclaimer

   EN    FR    IT 

 










Legend :    VFR   Marginal VFR   IFR   Intensive IFR   Very Intensive IFR
Visi :
Ceiling :
>= 8 km
>= 3000ft
5 to 8 km
1000 to 3000 ft
1500m to 5 km
500 to 1000 ft
800 to 1500m
200 to 500 ft
< 800m
< 200 ft
Symbols :   Thunderstorms  Fog  Heavy snow  Heavy precipitations  Wind > 20 kt
SIGMETs :     Misc.  Thunderstorms  Icing  Turbulence  Mountain Waves  Volcanic Ashes






- Airport Elevation : 146 ft
- IATA code : RKE


EKRK - Roskilde Tune

CURRENT METAR :
  • 090350Z AUTO 16011KT 4600 -RA OVC005/// 07/07 Q1006

EXPIRED METARs :
  • 090320Z AUTO 15013KT 7000 -RA BKN007/// OVC018/// 07/06 Q1007 RESHRA
  • 090250Z AUTO 15014KT 7000 -RA OVC012/// 07/06 Q1007 RERA
  • 090220Z AUTO 15014KT 9000 RA OVC022/// 07/06 Q1007
  • 090150Z AUTO 14013KT 9000 RA OVC025/// 07/05 Q1008
  • 090120Z AUTO 14011KT 9999 -RA OVC036/// 07/06 Q1008

TAF AMD TAF EKRK
Valid from the 09 at 03:00 until the 09 at 12:00 UTC


090326Z 0903/0912 15014KT 9000 RA BKN020
TEMPO 0903/0905 4000 -RA BKN007
BECMG 0905/0907 NSW



MET'MAP, your aeronautical weather chart ! - Copyright ORBIFLY December 2007 - Disclaimer

ORBIFLY MET'MAP TEAM :

Programming & Development : Alexandra Zaïnal
Concept & original design : Baudouin d'Aumeries
Assistance for programming : Marc-Olivier Méhu
Technical & hardware support : Manuel Goepfert

Contact : metmap@orbifly.com




SOURCES & CREDITS :

   NOAA